Boulevard, CA (91905)

2:14 PM PDT on April 23, 2017 (GMT -0700)
MTDSSD | | Change Station

Elev 3542 ft 32.64 °N, 116.35 °W | Updated 1 minute ago

Unknown
N/A
73.0 °F
Feels Like 76 °F
N
14.0
Wind Variable Wind from WSW
Gusts 26.0 mph

Today
High -- | Low -- °F
--% Chance of Precip.
Yesterday
High -- | Low -- °F
Precip. -- in
Pressure 29.81 in
Visibility -9999.0 miles
Clouds
Heat Index 76 °F
Dew Point 38 °F
Humidity 28%
Rainfall in
Snow Depth Not available.
6:06 AM 7:21 PM
Waning Crescent, 9% visible
METAR KCZZ 232052Z AUTO 23012G24KT 26/05 A2988 RMK AO1 PK WND 22027/2005 SLP093 T02560050 58006
Pressure 29.81 in
Visibility -9999.0 miles
Clouds
Heat Index 76 °F
Dew Point 38 °F
Humidity 28%
Rainfall in
Snow Depth Not available.
6:06 AM 7:21 PM
Waning Crescent, 9% visible
METAR KCZZ 232052Z AUTO 23012G24KT 26/05 A2988 RMK AO1 PK WND 22027/2005 SLP093 T02560050 58006

Get Severe Weather Alerts

Thanks for signing up!

Be on the lookout for a verification email in your inbox.

You'll start receiving the daily forecast at 8 AM.

×

10-Day Weather Forecast

Almanac

Astronomy

Apr. 23, 2017 Rise Set
Actual Time
Civil Twilight
Nautical Twilight
Astronomical Twilight
Moon
Length of Visible Light
Length of Day
Tomorrow will be .
, % of the Moon is Illuminated

Today's Extremes

State Highs State Lows

Community

WunderPhotos

WunderBlog® & News

Nearby

Air Quality

  Air Quality AQ Index Pollutant
Not available.

Snow Depth

Station Depth Elevation

Earthquake Activity

City Distance Mag. Time & Date
Minimum magnitude displayed is 2.5.

Coastal Water Temperatures

Place Temperature

Stations

Nearby Weather Stations

Station Location Temp. Windchill Dew Point Humidity Wind Precip. Elev Updated Type
                   

Watches & Warnings

There are currently no watches in effect.